KCLM/CLM METAR and TAF weather

Enter ICAO airport designator
Station Type Date Time Source
KCLM METAR 2023/06/01 06:53 UTC NOAA

KCLM 010653Z AUTO 27007KT 10SM CLR 08/04 A3010 RMK AO2 SLP194 T00830044


Station Type Date Time Source
KCLM Decoded METAR 2023/06/01 06:53 UTC NOAA

PORT ANGELES FAIRCHILD INTERNATIONAL , WA, United States (KCLM) 48-07N 123-30W 85M
Jun 01, 2023 - 02:53 AM EDT / 2023.06.01 0653 UTC
Wind: from the W (270 degrees) at 8 MPH (7 KT):0
Visibility: 10 mile(s):0
Sky conditions: clear
Temperature: 46.9 F (8.3 C)
Dew Point: 39.9 F (4.4 C)
Relative Humidity: 76%
Pressure (altimeter): 30.1 in. Hg (1019 hPa)
ob: KCLM 010653Z AUTO 27007KT 10SM CLR 08/04 A3010 RMK AO2 SLP194 T00830044
cycle: 7

Station Type Date Time Source
KCLM TAF 2023/06/01 06:24 UTC NOAA

TAF KCLM 010522Z 0106/0206 28010KT P6SM FEW200
FM011800 32008KT P6SM SKC
FM020100 28014G22KT P6SM SKC

Example: see airport list